Timeline UpdatesTrip UpdatesNews PostsPvt PostsTravel TipsAdmin PostsConv PostsFollowed PostsChat RequestsBlog PostsPNR Posts

Disclaimer
Search
 
 
Sat Aug 30, 2014 17:41:04 ISTHomeTrainsΣChainsAtlasPNRForumGalleryNewsFAQTripsMembersLoginFeedback
No Recent News for this Train
Other Trains in the News **new
Latest...
Short Origination from Purulia on 1/6/14 #1118541.
Sat May 31, 2014 (05:06PM)
⇐ Return Journey: Train# 68019

68020/Dhanbad-Jhargram MEMU

Feb 27 2014 (11:10PM)
Change Departure Station:
Change Arrival Station:
Post a Train Travel TipPost a Train Travel Tip **new
Post a Comment/Question/Picture/VideoPost a Comment/Question/Picture/Video
Inaugural Run
Wed May 18, 2011
Pantry/Catering
✕ NO Pantry Car
✕ NO Catering
RSA - Rake Sharing
Rake/Coach Composition
.
Loco
News    PNR    Forum    Time-Table    Availability    Fare Chart    Map    Arr/Dep History    Trips    Gallery    ΣChains    X/O    Timeline    
Travel Time: 2h 35m    13 halts    Distance: 107 km    Avg Speed: 41 km/hr
Type: MEMU
Zone: SER/South Eastern
Departs @ 19:15 (Avg 35m late)
Platform# ???
SMTWTF 
Gamharia/GMH 
Arrives @ 21:50 (Avg 13m late)
Platform# ???
SMTWTF 
Jhargram/JGM 

13 halts. 13 intermediate Stations between Gamharia and Jhargram

Show ALL intermediate Stations  Show Old Time-Table

#CodeStation NameX/OArrivesAvgDepartsAvgHaltPFDay#KmSpeedElevZoneAddress
1DHNDhanbad Junction (8)  -14:20+7--1-192.530235mECR2319801. Div. HQ ECR, Jharkhand
2KDSKusunda Junction (2)  14:28+1214:29+131m--1-188.533218mECRKusunda, Jharkhand
3BZEBaseria (2)  14:33-14:34-1m--1-186.231210mECRBaseria, Jharkhand
4BZSBansjora  14:38+1314:39+131m--1-184.238212mECRDhanbad, Jharkhand
5SJASijua  14:43+1214:44+121m--1-181.718206mECRSijua, Jharkhand
6ANJEAngarpathra HaltX  14:48-14:49-1m--1-180.518204mECRAngarpathra, Jharkhand
7KTHKatrasgarh (1)  14:55+1114:57+112m11-178.738198mECRKatrasgarh, Jharkhand
8TNJETentulla  15:01-15:02-1m--1-176.222196mECRTentulla, Jharkhand
9SZESonardih  15:06+1315:07+151m--1-174.722197mECRSonardih, Jharkhand
10TNOTundu  15:11-15:12-1m--1-173.240198mECRTundu, Jharkhand
11BDQBudora  15:15-15:16-1m--1-171.217210mECRBudora, Jharkhand
12PLJEPhulwartanr (2)  15:19+1515:20+151m21-170.450219mECRPhulwartanr, Jharkhand
13JMXJamuni  15:23-15:24-1m--1-167.938204mECRJamuni, Jharkhand
14JNNAJamuniatanr Halt (1)  15:28+1615:29+161m11-165.464182mECRNational Highway 32, Jharkhand
15DNHDeonagar  15:33-15:34-1m--1-161.112223mECRDeonagar, Jharkhand
16CRPChandrapura Junction (2)  15:48+1215:50+202m11-158.228227mECR06549-242555, Jharkhand
17RJBRajaberaX  15:59+2316:00+231m--1-154.132198mECRStation Rd, Jharkhand
18TKBTupkadih (3)X  16:09+2816:10+281m--1-149.340233mSERBokaro, Jharkhand
19BKSCBokaro Steel City (3)  16:20+1416:22+152m21-142.650245mSER06542-253861, Jharkhand
20RDFRadhagaon (3)X  16:30+2716:31+271m--1-136.086247mSERPundag Railway Station Rd, Jharkhand
21PNWPundhag (3)X  16:38+2816:39+291m21-126.048291mSERDist - Puruliya -723215, West Bengal
22GUGGarh Jaipur  17:02-17:03-1m--1-107.689292mSERJaipur, West Bengal
23CASChas Road (1)  17:09-17:10-1m11-98.766291mSERNational Highway 32, West Bengal
24GTDGourinathdham (1)  17:15+2817:16+281m11-93.247277mSERNational Highway 32, West Bengal
25PRRPurulia Junction (4)  17:35+2217:37+252m--1-78.260240mSERPurulia, West Bengal
26TAOTamna  17:44+2617:45+261m--1-71.179236mSERNational Highway 32, West Bengal
27KTDKantadih  17:51+2717:52+271m--1-63.281274mSERNational Highway 32, West Bengal
28URMAUrmaX  17:58+2717:59+261m--1-55.187266mSERNational Highway 32, West Bengal
29BBMBarabhum  18:05+2718:06+271m--1-46.466229mSERBalarampur, West Bengal
30BRMDBiramdih  18:11+2718:12+271m--1-40.982263mSERNational Highway 32, West Bengal
31NIMNimdih  18:18+3018:19+301m--1-32.832209mSERNational Highway 32, Jharkhand
32CNIChandil Junction (4)X  18:35+2618:36+261m--1-24.151178mSERChandil, Jharkhand
33MIKManikul (2)X  18:43+918:44+101m--1-18.251170mSERJharkhand 832401, Jharkhand
34KZUKunki (2)  18:50+3418:51+341m--1-13.132163mSERNational Highway 33, Jharkhand
35KNDKandra (4)  18:57+4218:58+421m--1-9.937176mSERJamshedpur, Jharkhand
36GMH»Gamharia (3)»  19:14+3419:15+351m--10.040165mSERJamshedpur, Jharkhand
37ADTPAdityapur (3)  19:24+219:25+21m--16.028152mSERJamshedpur, Jharkhand
38TATATatanagar Junction (5)X  19:35+1419:45+1410m--110.726164mSER91-657-2423026, Jharkhand
39SLJRSalga JhariX  19:50-19:51-1m--112.856179mSERJamshedpur, Jharkhand
40ASBAsanboni  20:02+3620:03+361m--123.182129mSEREast Singhbhum, Jharkhand
41RHERakha Mines (2)X  20:08+2920:09+291m--130.059118mSEREast Singhbhum, Jharkhand
42GUDGaludih (4)  20:16+3420:17+351m--136.975120mSEREast Singhbhum, Jharkhand
43GTSGhatsila (3)X  20:25+2820:26+281m--146.966103mSEREast Singhbhum, Jharkhand
44DVMDhalbhumgarh  20:37+1620:38+161m--158.978115mSERDhalbhumgarh, Jharkhand
45KKPRKokpara  20:46+1120:47+131m--169.361102mSEREast Singhbhum District, Jharkhand
46CKUChakulia (4)  20:55+1420:56+161m--177.460126mSERChakulia, Jharkhand
47KNMKanimahuli  21:02-21:03-1m--183.465110mSERState Highway 4, West Bengal
48GIIGidni (3)  21:10+1421:11+141m--191.06283mSERState Highway 4, West Bengal
49KATBKhatkura  21:18-21:19-1m--198.21679mSERState Highway 4, West Bengal
50JGM•Jhargram (4)•  21:50+13---1106.6-82mSERJhargram, West Bengal
Scroll to Top
Scroll to Bottom